sensor_id;sensor_type;location;lat;lon;timestamp;P1;durP1;ratioP1;P2;durP2;ratioP2
19869;SDS011;10097;50.862;4.696;2024-03-29T00:00:41;5.33;;;1.00;;
19869;SDS011;10097;50.862;4.696;2024-03-29T00:03:08;10.40;;;1.27;;
19869;SDS011;10097;50.862;4.696;2024-03-29T00:05:35;7.03;;;1.13;;
19869;SDS011;10097;50.862;4.696;2024-03-29T00:08:01;6.57;;;0.83;;
19869;SDS011;10097;50.862;4.696;2024-03-29T00:10:28;9.33;;;1.20;;
19869;SDS011;10097;50.862;4.696;2024-03-29T00:12:54;7.63;;;1.27;;
19869;SDS011;10097;50.862;4.696;2024-03-29T00:15:19;9.67;;;0.83;;
19869;SDS011;10097;50.862;4.696;2024-03-29T00:17:45;9.80;;;0.93;;
19869;SDS011;10097;50.862;4.696;2024-03-29T00:20:11;4.63;;;0.80;;
19869;SDS011;10097;50.862;4.696;2024-03-29T00:22:37;6.87;;;0.90;;
19869;SDS011;10097;50.862;4.696;2024-03-29T00:25:03;6.03;;;0.73;;
19869;SDS011;10097;50.862;4.696;2024-03-29T00:27:29;4.93;;;0.60;;
19869;SDS011;10097;50.862;4.696;2024-03-29T00:29:55;2.67;;;0.70;;
19869;SDS011;10097;50.862;4.696;2024-03-29T00:32:21;3.30;;;0.73;;
19869;SDS011;10097;50.862;4.696;2024-03-29T00:34:51;9.33;;;1.10;;
19869;SDS011;10097;50.862;4.696;2024-03-29T00:37:17;8.77;;;1.50;;
19869;SDS011;10097;50.862;4.696;2024-03-29T00:39:43;4.83;;;0.93;;
19869;SDS011;10097;50.862;4.696;2024-03-29T00:42:10;4.67;;;1.17;;
19869;SDS011;10097;50.862;4.696;2024-03-29T00:44:40;6.77;;;0.93;;
19869;SDS011;10097;50.862;4.696;2024-03-29T00:47:09;8.23;;;1.10;;
19869;SDS011;10097;50.862;4.696;2024-03-29T00:49:35;4.50;;;0.73;;
19869;SDS011;10097;50.862;4.696;2024-03-29T00:52:01;8.00;;;1.47;;
19869;SDS011;10097;50.862;4.696;2024-03-29T00:54:28;4.87;;;0.50;;
19869;SDS011;10097;50.862;4.696;2024-03-29T00:56:54;5.93;;;1.10;;
19869;SDS011;10097;50.862;4.696;2024-03-29T00:59:19;6.20;;;0.90;;
19869;SDS011;10097;50.862;4.696;2024-03-29T01:01:45;5.47;;;0.80;;
19869;SDS011;10097;50.862;4.696;2024-03-29T01:04:11;5.00;;;0.67;;
19869;SDS011;10097;50.862;4.696;2024-03-29T01:06:37;7.83;;;1.17;;
19869;SDS011;10097;50.862;4.696;2024-03-29T01:09:04;5.47;;;0.97;;
19869;SDS011;10097;50.862;4.696;2024-03-29T01:11:30;4.30;;;0.60;;
19869;SDS011;10097;50.862;4.696;2024-03-29T01:13:56;5.40;;;0.90;;
19869;SDS011;10097;50.862;4.696;2024-03-29T01:16:22;4.27;;;0.80;;
19869;SDS011;10097;50.862;4.696;2024-03-29T01:18:48;5.00;;;0.93;;
19869;SDS011;10097;50.862;4.696;2024-03-29T01:21:14;6.53;;;1.00;;
19869;SDS011;10097;50.862;4.696;2024-03-29T01:23:39;3.90;;;1.00;;
19869;SDS011;10097;50.862;4.696;2024-03-29T01:26:06;5.70;;;0.80;;
19869;SDS011;10097;50.862;4.696;2024-03-29T01:28:32;5.77;;;1.00;;
19869;SDS011;10097;50.862;4.696;2024-03-29T01:30:58;3.77;;;0.80;;
19869;SDS011;10097;50.862;4.696;2024-03-29T01:33:24;5.07;;;0.77;;
19869;SDS011;10097;50.862;4.696;2024-03-29T01:35:50;3.93;;;0.70;;
19869;SDS011;10097;50.862;4.696;2024-03-29T01:38:16;3.90;;;0.50;;
19869;SDS011;10097;50.862;4.696;2024-03-29T01:40:42;3.53;;;0.60;;
19869;SDS011;10097;50.862;4.696;2024-03-29T01:43:08;5.00;;;0.40;;
19869;SDS011;10097;50.862;4.696;2024-03-29T01:45:39;5.37;;;0.90;;
19869;SDS011;10097;50.862;4.696;2024-03-29T01:48:08;5.03;;;1.03;;
19869;SDS011;10097;50.862;4.696;2024-03-29T01:50:34;4.53;;;0.80;;
19869;SDS011;10097;50.862;4.696;2024-03-29T01:53:01;2.37;;;0.50;;
19869;SDS011;10097;50.862;4.696;2024-03-29T01:55:28;3.83;;;0.40;;
19869;SDS011;10097;50.862;4.696;2024-03-29T01:57:54;2.50;;;0.53;;
19869;SDS011;10097;50.862;4.696;2024-03-29T02:00:21;4.20;;;0.43;;
19869;SDS011;10097;50.862;4.696;2024-03-29T02:02:47;3.37;;;0.60;;
19869;SDS011;10097;50.862;4.696;2024-03-29T02:05:13;2.90;;;0.40;;
19869;SDS011;10097;50.862;4.696;2024-03-29T02:07:39;3.27;;;0.40;;
19869;SDS011;10097;50.862;4.696;2024-03-29T02:10:09;4.23;;;0.30;;
19869;SDS011;10097;50.862;4.696;2024-03-29T02:12:37;3.60;;;0.43;;
19869;SDS011;10097;50.862;4.696;2024-03-29T02:15:04;2.07;;;0.40;;
19869;SDS011;10097;50.862;4.696;2024-03-29T02:17:30;3.70;;;0.60;;
19869;SDS011;10097;50.862;4.696;2024-03-29T02:19:57;3.37;;;0.50;;
19869;SDS011;10097;50.862;4.696;2024-03-29T02:22:22;4.67;;;0.40;;
19869;SDS011;10097;50.862;4.696;2024-03-29T02:24:49;9.07;;;0.80;;
19869;SDS011;10097;50.862;4.696;2024-03-29T02:27:16;5.73;;;0.87;;
19869;SDS011;10097;50.862;4.696;2024-03-29T02:29:42;1.20;;;0.30;;
19869;SDS011;10097;50.862;4.696;2024-03-29T02:32:07;6.03;;;0.50;;
19869;SDS011;10097;50.862;4.696;2024-03-29T02:34:33;4.93;;;0.60;;
19869;SDS011;10097;50.862;4.696;2024-03-29T02:36:59;4.60;;;0.50;;
19869;SDS011;10097;50.862;4.696;2024-03-29T02:39:26;3.77;;;0.63;;
19869;SDS011;10097;50.862;4.696;2024-03-29T02:41:51;2.00;;;0.50;;
19869;SDS011;10097;50.862;4.696;2024-03-29T02:44:17;7.17;;;0.80;;
19869;SDS011;10097;50.862;4.696;2024-03-29T02:46:43;3.80;;;0.50;;
19869;SDS011;10097;50.862;4.696;2024-03-29T02:49:08;5.53;;;0.80;;
19869;SDS011;10097;50.862;4.696;2024-03-29T02:51:34;3.83;;;0.83;;
19869;SDS011;10097;50.862;4.696;2024-03-29T02:54:00;3.03;;;0.40;;
19869;SDS011;10097;50.862;4.696;2024-03-29T02:56:26;5.40;;;0.60;;
19869;SDS011;10097;50.862;4.696;2024-03-29T02:58:52;6.60;;;0.87;;
19869;SDS011;10097;50.862;4.696;2024-03-29T03:01:18;11.13;;;1.03;;
19869;SDS011;10097;50.862;4.696;2024-03-29T03:03:44;7.07;;;0.90;;
19869;SDS011;10097;50.862;4.696;2024-03-29T03:06:09;4.30;;;0.87;;
19869;SDS011;10097;50.862;4.696;2024-03-29T03:08:35;4.33;;;0.73;;
19869;SDS011;10097;50.862;4.696;2024-03-29T03:11:19;3.03;;;0.70;;
19869;SDS011;10097;50.862;4.696;2024-03-29T03:13:45;5.77;;;0.93;;
19869;SDS011;10097;50.862;4.696;2024-03-29T03:16:10;5.97;;;0.80;;
19869;SDS011;10097;50.862;4.696;2024-03-29T03:18:36;6.07;;;0.90;;
19869;SDS011;10097;50.862;4.696;2024-03-29T03:21:02;4.80;;;0.90;;
19869;SDS011;10097;50.862;4.696;2024-03-29T03:23:28;4.77;;;0.60;;
19869;SDS011;10097;50.862;4.696;2024-03-29T03:25:54;3.93;;;0.80;;
19869;SDS011;10097;50.862;4.696;2024-03-29T03:28:24;3.03;;;0.80;;
19869;SDS011;10097;50.862;4.696;2024-03-29T03:30:50;3.50;;;0.80;;
19869;SDS011;10097;50.862;4.696;2024-03-29T03:33:17;7.30;;;1.27;;
19869;SDS011;10097;50.862;4.696;2024-03-29T03:35:43;5.90;;;0.90;;
19869;SDS011;10097;50.862;4.696;2024-03-29T03:38:08;6.73;;;1.00;;
19869;SDS011;10097;50.862;4.696;2024-03-29T03:40:34;4.80;;;1.20;;
19869;SDS011;10097;50.862;4.696;2024-03-29T03:43:04;5.77;;;0.80;;
19869;SDS011;10097;50.862;4.696;2024-03-29T03:45:33;6.00;;;1.10;;
19869;SDS011;10097;50.862;4.696;2024-03-29T03:48:01;4.20;;;0.80;;
19869;SDS011;10097;50.862;4.696;2024-03-29T03:50:27;3.37;;;1.00;;
19869;SDS011;10097;50.862;4.696;2024-03-29T03:52:53;6.43;;;1.33;;
19869;SDS011;10097;50.862;4.696;2024-03-29T03:55:19;4.67;;;0.67;;
19869;SDS011;10097;50.862;4.696;2024-03-29T03:57:45;6.37;;;1.10;;
19869;SDS011;10097;50.862;4.696;2024-03-29T04:00:10;2.87;;;0.50;;
19869;SDS011;10097;50.862;4.696;2024-03-29T04:02:37;5.93;;;0.90;;
19869;SDS011;10097;50.862;4.696;2024-03-29T04:05:02;6.83;;;0.97;;
19869;SDS011;10097;50.862;4.696;2024-03-29T04:07:28;5.87;;;1.00;;
19869;SDS011;10097;50.862;4.696;2024-03-29T04:09:54;6.03;;;0.90;;
19869;SDS011;10097;50.862;4.696;2024-03-29T04:12:19;7.20;;;1.07;;
19869;SDS011;10097;50.862;4.696;2024-03-29T04:14:45;5.50;;;0.60;;
19869;SDS011;10097;50.862;4.696;2024-03-29T04:17:11;4.23;;;0.90;;
19869;SDS011;10097;50.862;4.696;2024-03-29T04:19:37;3.27;;;0.63;;
19869;SDS011;10097;50.862;4.696;2024-03-29T04:22:03;2.30;;;0.53;;
19869;SDS011;10097;50.862;4.696;2024-03-29T04:24:29;4.30;;;0.70;;
19869;SDS011;10097;50.862;4.696;2024-03-29T04:26:54;2.80;;;0.60;;
19869;SDS011;10097;50.862;4.696;2024-03-29T04:29:20;5.53;;;0.70;;
19869;SDS011;10097;50.862;4.696;2024-03-29T04:31:46;5.20;;;0.80;;
19869;SDS011;10097;50.862;4.696;2024-03-29T04:34:11;2.97;;;0.60;;
19869;SDS011;10097;50.862;4.696;2024-03-29T04:36:37;7.77;;;1.00;;
19869;SDS011;10097;50.862;4.696;2024-03-29T04:39:03;5.40;;;0.70;;
19869;SDS011;10097;50.862;4.696;2024-03-29T04:41:29;6.07;;;1.63;;
19869;SDS011;10097;50.862;4.696;2024-03-29T04:43:59;4.40;;;0.80;;
19869;SDS011;10097;50.862;4.696;2024-03-29T04:46:29;5.10;;;0.90;;
19869;SDS011;10097;50.862;4.696;2024-03-29T04:48:56;8.53;;;0.80;;
19869;SDS011;10097;50.862;4.696;2024-03-29T04:51:22;2.23;;;0.47;;
19869;SDS011;10097;50.862;4.696;2024-03-29T04:53:48;2.17;;;0.80;;
19869;SDS011;10097;50.862;4.696;2024-03-29T04:56:14;2.00;;;0.53;;
19869;SDS011;10097;50.862;4.696;2024-03-29T04:58:40;3.70;;;0.80;;
19869;SDS011;10097;50.862;4.696;2024-03-29T05:01:06;4.07;;;0.90;;
19869;SDS011;10097;50.862;4.696;2024-03-29T05:03:32;4.80;;;0.83;;
19869;SDS011;10097;50.862;4.696;2024-03-29T05:05:58;3.57;;;0.53;;
19869;SDS011;10097;50.862;4.696;2024-03-29T05:08:23;4.90;;;0.90;;
19869;SDS011;10097;50.862;4.696;2024-03-29T05:10:49;2.07;;;0.50;;
19869;SDS011;10097;50.862;4.696;2024-03-29T05:13:15;2.33;;;0.90;;
19869;SDS011;10097;50.862;4.696;2024-03-29T05:15:42;4.47;;;1.00;;
19869;SDS011;10097;50.862;4.696;2024-03-29T05:18:08;4.80;;;1.00;;
19869;SDS011;10097;50.862;4.696;2024-03-29T05:20:34;2.67;;;0.90;;
19869;SDS011;10097;50.862;4.696;2024-03-29T05:23:00;5.90;;;1.00;;
19869;SDS011;10097;50.862;4.696;2024-03-29T05:25:26;10.43;;;1.30;;
19869;SDS011;10097;50.862;4.696;2024-03-29T05:27:52;6.10;;;1.07;;
19869;SDS011;10097;50.862;4.696;2024-03-29T05:30:18;6.07;;;1.53;;
19869;SDS011;10097;50.862;4.696;2024-03-29T05:32:44;9.37;;;1.07;;
19869;SDS011;10097;50.862;4.696;2024-03-29T05:35:10;1.90;;;0.77;;
19869;SDS011;10097;50.862;4.696;2024-03-29T05:37:36;4.00;;;1.10;;
19869;SDS011;10097;50.862;4.696;2024-03-29T05:40:02;9.30;;;1.80;;
19869;SDS011;10097;50.862;4.696;2024-03-29T05:42:30;4.70;;;0.90;;
19869;SDS011;10097;50.862;4.696;2024-03-29T05:44:58;2.77;;;0.80;;
19869;SDS011;10097;50.862;4.696;2024-03-29T05:47:24;6.43;;;1.10;;
19869;SDS011;10097;50.862;4.696;2024-03-29T05:49:49;6.30;;;1.13;;
19869;SDS011;10097;50.862;4.696;2024-03-29T05:52:16;2.97;;;0.87;;
19869;SDS011;10097;50.862;4.696;2024-03-29T05:54:42;4.00;;;1.07;;
19869;SDS011;10097;50.862;4.696;2024-03-29T05:57:09;3.57;;;0.90;;
19869;SDS011;10097;50.862;4.696;2024-03-29T05:59:35;3.37;;;0.90;;
19869;SDS011;10097;50.862;4.696;2024-03-29T06:02:01;5.80;;;0.90;;
19869;SDS011;10097;50.862;4.696;2024-03-29T06:04:27;6.47;;;1.10;;
19869;SDS011;10097;50.862;4.696;2024-03-29T06:07:03;6.57;;;1.40;;
19869;SDS011;10097;50.862;4.696;2024-03-29T06:09:29;4.37;;;0.93;;
19869;SDS011;10097;50.862;4.696;2024-03-29T06:11:56;5.00;;;1.23;;
19869;SDS011;10097;50.862;4.696;2024-03-29T06:14:26;4.47;;;1.03;;
19869;SDS011;10097;50.862;4.696;2024-03-29T06:17:10;6.03;;;1.10;;
19869;SDS011;10097;50.862;4.696;2024-03-29T06:19:51;7.10;;;1.20;;
19869;SDS011;10097;50.862;4.696;2024-03-29T06:22:20;4.37;;;0.93;;
19869;SDS011;10097;50.862;4.696;2024-03-29T06:24:46;7.13;;;1.57;;
19869;SDS011;10097;50.862;4.696;2024-03-29T06:27:13;8.13;;;1.57;;
19869;SDS011;10097;50.862;4.696;2024-03-29T06:29:42;8.87;;;1.50;;
19869;SDS011;10097;50.862;4.696;2024-03-29T06:32:08;5.03;;;1.13;;
19869;SDS011;10097;50.862;4.696;2024-03-29T06:34:34;5.20;;;1.50;;
19869;SDS011;10097;50.862;4.696;2024-03-29T06:37:00;4.17;;;1.10;;
19869;SDS011;10097;50.862;4.696;2024-03-29T06:39:25;4.07;;;1.40;;
19869;SDS011;10097;50.862;4.696;2024-03-29T06:41:51;2.43;;;1.07;;
19869;SDS011;10097;50.862;4.696;2024-03-29T06:44:17;3.70;;;1.10;;
19869;SDS011;10097;50.862;4.696;2024-03-29T06:46:43;4.00;;;1.10;;
19869;SDS011;10097;50.862;4.696;2024-03-29T06:49:09;5.73;;;1.43;;
19869;SDS011;10097;50.862;4.696;2024-03-29T06:51:34;6.53;;;1.40;;
19869;SDS011;10097;50.862;4.696;2024-03-29T06:54:00;5.27;;;1.20;;
19869;SDS011;10097;50.862;4.696;2024-03-29T06:56:26;5.00;;;1.13;;
19869;SDS011;10097;50.862;4.696;2024-03-29T06:58:52;6.83;;;1.20;;
19869;SDS011;10097;50.862;4.696;2024-03-29T07:01:17;6.33;;;1.60;;
19869;SDS011;10097;50.862;4.696;2024-03-29T07:03:43;10.73;;;1.07;;
19869;SDS011;10097;50.862;4.696;2024-03-29T07:06:09;5.77;;;1.03;;
19869;SDS011;10097;50.862;4.696;2024-03-29T07:08:35;5.60;;;1.50;;
19869;SDS011;10097;50.862;4.696;2024-03-29T07:11:01;7.50;;;2.20;;
19869;SDS011;10097;50.862;4.696;2024-03-29T07:13:28;4.90;;;1.20;;
19869;SDS011;10097;50.862;4.696;2024-03-29T07:15:56;6.17;;;0.80;;
19869;SDS011;10097;50.862;4.696;2024-03-29T07:18:25;8.30;;;1.00;;
19869;SDS011;10097;50.862;4.696;2024-03-29T07:20:51;6.47;;;1.30;;
19869;SDS011;10097;50.862;4.696;2024-03-29T07:23:17;7.80;;;1.40;;
19869;SDS011;10097;50.862;4.696;2024-03-29T07:25:45;6.37;;;1.10;;
19869;SDS011;10097;50.862;4.696;2024-03-29T07:28:22;5.80;;;1.00;;
19869;SDS011;10097;50.862;4.696;2024-03-29T07:30:47;7.87;;;1.07;;
19869;SDS011;10097;50.862;4.696;2024-03-29T07:33:15;4.17;;;1.03;;
19869;SDS011;10097;50.862;4.696;2024-03-29T07:35:41;8.17;;;1.10;;
19869;SDS011;10097;50.862;4.696;2024-03-29T07:38:07;4.60;;;0.90;;
19869;SDS011;10097;50.862;4.696;2024-03-29T07:40:33;5.73;;;1.20;;
19869;SDS011;10097;50.862;4.696;2024-03-29T07:43:14;4.17;;;1.17;;
19869;SDS011;10097;50.862;4.696;2024-03-29T07:45:41;4.23;;;1.10;;
19869;SDS011;10097;50.862;4.696;2024-03-29T07:48:12;4.20;;;1.00;;
19869;SDS011;10097;50.862;4.696;2024-03-29T07:50:43;5.17;;;1.27;;
19869;SDS011;10097;50.862;4.696;2024-03-29T07:53:10;9.30;;;1.57;;
19869;SDS011;10097;50.862;4.696;2024-03-29T07:55:36;6.27;;;1.43;;
19869;SDS011;10097;50.862;4.696;2024-03-29T07:58:03;5.23;;;1.30;;
19869;SDS011;10097;50.862;4.696;2024-03-29T08:00:33;5.93;;;1.47;;
19869;SDS011;10097;50.862;4.696;2024-03-29T08:03:00;3.43;;;1.10;;
19869;SDS011;10097;50.862;4.696;2024-03-29T08:05:26;6.27;;;1.60;;
19869;SDS011;10097;50.862;4.696;2024-03-29T08:07:53;5.87;;;1.20;;
19869;SDS011;10097;50.862;4.696;2024-03-29T08:10:19;3.13;;;1.03;;
19869;SDS011;10097;50.862;4.696;2024-03-29T08:12:45;7.77;;;1.90;;
19869;SDS011;10097;50.862;4.696;2024-03-29T08:15:11;4.33;;;1.27;;
19869;SDS011;10097;50.862;4.696;2024-03-29T08:17:37;6.07;;;1.60;;
19869;SDS011;10097;50.862;4.696;2024-03-29T08:20:03;7.23;;;1.80;;
19869;SDS011;10097;50.862;4.696;2024-03-29T08:22:29;6.53;;;1.30;;
19869;SDS011;10097;50.862;4.696;2024-03-29T08:24:58;5.20;;;1.27;;
19869;SDS011;10097;50.862;4.696;2024-03-29T08:27:24;5.77;;;1.70;;
19869;SDS011;10097;50.862;4.696;2024-03-29T08:29:51;5.30;;;1.27;;
19869;SDS011;10097;50.862;4.696;2024-03-29T08:32:17;5.10;;;1.57;;
19869;SDS011;10097;50.862;4.696;2024-03-29T08:34:43;3.47;;;1.13;;
19869;SDS011;10097;50.862;4.696;2024-03-29T08:37:08;7.67;;;1.97;;
19869;SDS011;10097;50.862;4.696;2024-03-29T08:39:34;8.23;;;1.70;;
19869;SDS011;10097;50.862;4.696;2024-03-29T08:42:02;7.17;;;1.63;;
19869;SDS011;10097;50.862;4.696;2024-03-29T08:44:33;5.73;;;1.40;;
19869;SDS011;10097;50.862;4.696;2024-03-29T08:47:00;9.40;;;1.30;;
19869;SDS011;10097;50.862;4.696;2024-03-29T08:49:29;3.43;;;1.03;;
19869;SDS011;10097;50.862;4.696;2024-03-29T08:51:55;2.63;;;1.07;;
19869;SDS011;10097;50.862;4.696;2024-03-29T08:54:22;4.90;;;1.60;;
19869;SDS011;10097;50.862;4.696;2024-03-29T08:56:48;7.40;;;1.20;;
19869;SDS011;10097;50.862;4.696;2024-03-29T08:59:14;5.10;;;1.13;;
19869;SDS011;10097;50.862;4.696;2024-03-29T09:01:42;6.10;;;1.00;;
19869;SDS011;10097;50.862;4.696;2024-03-29T09:04:09;6.43;;;1.20;;
19869;SDS011;10097;50.862;4.696;2024-03-29T09:06:36;4.57;;;0.97;;
19869;SDS011;10097;50.862;4.696;2024-03-29T09:09:03;4.70;;;0.83;;
19869;SDS011;10097;50.862;4.696;2024-03-29T09:11:30;4.10;;;1.23;;
19869;SDS011;10097;50.862;4.696;2024-03-29T09:13:56;3.73;;;1.00;;
19869;SDS011;10097;50.862;4.696;2024-03-29T09:16:23;6.70;;;0.83;;
19869;SDS011;10097;50.862;4.696;2024-03-29T09:18:50;3.37;;;0.97;;
19869;SDS011;10097;50.862;4.696;2024-03-29T09:21:16;5.57;;;0.97;;
19869;SDS011;10097;50.862;4.696;2024-03-29T09:23:42;2.53;;;0.70;;
19869;SDS011;10097;50.862;4.696;2024-03-29T09:26:07;4.37;;;0.90;;
19869;SDS011;10097;50.862;4.696;2024-03-29T09:28:33;2.37;;;0.80;;
19869;SDS011;10097;50.862;4.696;2024-03-29T09:31:02;2.10;;;0.60;;
19869;SDS011;10097;50.862;4.696;2024-03-29T09:33:28;2.10;;;0.63;;
19869;SDS011;10097;50.862;4.696;2024-03-29T09:35:54;2.17;;;0.80;;
19869;SDS011;10097;50.862;4.696;2024-03-29T09:38:20;1.57;;;0.53;;
19869;SDS011;10097;50.862;4.696;2024-03-29T09:40:46;1.93;;;0.53;;
19869;SDS011;10097;50.862;4.696;2024-03-29T09:43:18;0.40;;;0.20;;
19869;SDS011;10097;50.862;4.696;2024-03-29T09:45:44;2.37;;;0.80;;
19869;SDS011;10097;50.862;4.696;2024-03-29T09:48:10;1.73;;;0.50;;
19869;SDS011;10097;50.862;4.696;2024-03-29T09:50:36;4.57;;;1.20;;
19869;SDS011;10097;50.862;4.696;2024-03-29T09:53:06;2.00;;;0.40;;
19869;SDS011;10097;50.862;4.696;2024-03-29T09:55:33;3.67;;;0.70;;
19869;SDS011;10097;50.862;4.696;2024-03-29T09:58:00;3.90;;;0.87;;
19869;SDS011;10097;50.862;4.696;2024-03-29T10:00:28;1.50;;;0.60;;
19869;SDS011;10097;50.862;4.696;2024-03-29T10:02:55;1.53;;;0.47;;
19869;SDS011;10097;50.862;4.696;2024-03-29T10:05:22;3.60;;;1.23;;
19869;SDS011;10097;50.862;4.696;2024-03-29T10:07:48;5.50;;;0.87;;
19869;SDS011;10097;50.862;4.696;2024-03-29T10:10:15;2.70;;;0.83;;
19869;SDS011;10097;50.862;4.696;2024-03-29T10:12:40;3.13;;;0.83;;
19869;SDS011;10097;50.862;4.696;2024-03-29T10:15:06;1.30;;;0.63;;
19869;SDS011;10097;50.862;4.696;2024-03-29T10:17:44;4.43;;;0.67;;
19869;SDS011;10097;50.862;4.696;2024-03-29T10:20:11;2.60;;;0.60;;
19869;SDS011;10097;50.862;4.696;2024-03-29T10:22:41;3.23;;;0.87;;
19869;SDS011;10097;50.862;4.696;2024-03-29T10:25:09;1.77;;;0.50;;
19869;SDS011;10097;50.862;4.696;2024-03-29T10:27:44;1.83;;;0.50;;
19869;SDS011;10097;50.862;4.696;2024-03-29T10:30:10;2.57;;;0.50;;
19869;SDS011;10097;50.862;4.696;2024-03-29T10:32:41;2.72;;;0.60;;
19869;SDS011;10097;50.862;4.696;2024-03-29T10:35:08;1.70;;;0.50;;
19869;SDS011;10097;50.862;4.696;2024-03-29T10:37:34;1.63;;;0.57;;
19869;SDS011;10097;50.862;4.696;2024-03-29T10:40:10;1.80;;;0.70;;
19869;SDS011;10097;50.862;4.696;2024-03-29T10:42:40;1.45;;;0.68;;
19869;SDS011;10097;50.862;4.696;2024-03-29T10:45:06;2.50;;;0.77;;
19869;SDS011;10097;50.862;4.696;2024-03-29T10:47:33;1.48;;;0.50;;
19869;SDS011;10097;50.862;4.696;2024-03-29T10:49:59;2.05;;;0.70;;
19869;SDS011;10097;50.862;4.696;2024-03-29T10:52:25;2.03;;;0.65;;
19869;SDS011;10097;50.862;4.696;2024-03-29T10:54:51;2.17;;;0.65;;
19869;SDS011;10097;50.862;4.696;2024-03-29T10:57:22;1.80;;;0.50;;
19869;SDS011;10097;50.862;4.696;2024-03-29T11:05:33;2.50;;;0.40;;
19869;SDS011;10097;50.862;4.696;2024-03-29T11:08:02;2.63;;;0.45;;
19869;SDS011;10097;50.862;4.696;2024-03-29T11:13:05;1.90;;;0.60;;
19869;SDS011;10097;50.862;4.696;2024-03-29T11:15:40;2.90;;;0.50;;
19869;SDS011;10097;50.862;4.696;2024-03-29T11:18:10;2.17;;;0.50;;
19869;SDS011;10097;50.862;4.696;2024-03-29T11:20:37;1.20;;;0.43;;
19869;SDS011;10097;50.862;4.696;2024-03-29T11:23:09;1.27;;;0.55;;
19869;SDS011;10097;50.862;4.696;2024-03-29T11:25:41;2.88;;;0.50;;
19869;SDS011;10097;50.862;4.696;2024-03-29T11:28:08;3.50;;;0.50;;
19869;SDS011;10097;50.862;4.696;2024-03-29T11:30:41;2.28;;;0.45;;
19869;SDS011;10097;50.862;4.696;2024-03-29T11:33:25;3.15;;;0.70;;
19869;SDS011;10097;50.862;4.696;2024-03-29T11:35:55;2.05;;;0.35;;
19869;SDS011;10097;50.862;4.696;2024-03-29T11:38:21;2.75;;;0.50;;
19869;SDS011;10097;50.862;4.696;2024-03-29T11:40:54;4.03;;;0.40;;
19869;SDS011;10097;50.862;4.696;2024-03-29T11:43:49;1.98;;;0.40;;
19869;SDS011;10097;50.862;4.696;2024-03-29T11:46:16;1.25;;;0.30;;
19869;SDS011;10097;50.862;4.696;2024-03-29T11:48:42;0.73;;;0.38;;
19869;SDS011;10097;50.862;4.696;2024-03-29T11:51:14;2.50;;;0.50;;
19869;SDS011;10097;50.862;4.696;2024-03-29T11:53:41;6.20;;;0.80;;
19869;SDS011;10097;50.862;4.696;2024-03-29T11:56:08;3.05;;;0.65;;
19869;SDS011;10097;50.862;4.696;2024-03-29T11:58:34;2.92;;;0.82;;
19869;SDS011;10097;50.862;4.696;2024-03-29T12:01:00;2.22;;;0.70;;
19869;SDS011;10097;50.862;4.696;2024-03-29T12:03:27;3.35;;;0.57;;
19869;SDS011;10097;50.862;4.696;2024-03-29T12:05:54;3.95;;;0.47;;
19869;SDS011;10097;50.862;4.696;2024-03-29T12:08:27;2.92;;;0.43;;
19869;SDS011;10097;50.862;4.696;2024-03-29T12:11:01;1.63;;;0.50;;
19869;SDS011;10097;50.862;4.696;2024-03-29T12:13:28;2.10;;;0.40;;
19869;SDS011;10097;50.862;4.696;2024-03-29T12:15:54;0.43;;;0.25;;
19869;SDS011;10097;50.862;4.696;2024-03-29T12:18:20;1.10;;;0.30;;
19869;SDS011;10097;50.862;4.696;2024-03-29T12:20:47;4.82;;;0.60;;
19869;SDS011;10097;50.862;4.696;2024-03-29T12:23:15;1.45;;;0.20;;
19869;SDS011;10097;50.862;4.696;2024-03-29T12:25:42;1.50;;;0.17;;
19869;SDS011;10097;50.862;4.696;2024-03-29T12:28:08;0.95;;;0.30;;
19869;SDS011;10097;50.862;4.696;2024-03-29T12:30:35;1.35;;;0.17;;
19869;SDS011;10097;50.862;4.696;2024-03-29T12:33:05;1.83;;;0.32;;
19869;SDS011;10097;50.862;4.696;2024-03-29T12:35:32;2.28;;;0.50;;
19869;SDS011;10097;50.862;4.696;2024-03-29T12:38:04;1.33;;;0.20;;
19869;SDS011;10097;50.862;4.696;2024-03-29T12:40:33;0.82;;;0.22;;
19869;SDS011;10097;50.862;4.696;2024-03-29T12:43:05;1.30;;;0.30;;
19869;SDS011;10097;50.862;4.696;2024-03-29T12:45:35;1.20;;;0.22;;
19869;SDS011;10097;50.862;4.696;2024-03-29T12:48:02;1.75;;;0.20;;
19869;SDS011;10097;50.862;4.696;2024-03-29T12:50:28;1.90;;;0.20;;
19869;SDS011;10097;50.862;4.696;2024-03-29T12:53:05;1.75;;;0.30;;
19869;SDS011;10097;50.862;4.696;2024-03-29T12:55:31;1.20;;;0.28;;
19869;SDS011;10097;50.862;4.696;2024-03-29T12:58:01;3.58;;;0.35;;
19869;SDS011;10097;50.862;4.696;2024-03-29T13:00:30;0.73;;;0.22;;
19869;SDS011;10097;50.862;4.696;2024-03-29T13:02:56;2.53;;;0.40;;
19869;SDS011;10097;50.862;4.696;2024-03-29T13:05:21;4.22;;;0.32;;
19869;SDS011;10097;50.862;4.696;2024-03-29T13:07:48;6.85;;;0.60;;
19869;SDS011;10097;50.862;4.696;2024-03-29T13:10:14;1.13;;;0.40;;
19869;SDS011;10097;50.862;4.696;2024-03-29T13:12:46;2.25;;;0.50;;
19869;SDS011;10097;50.862;4.696;2024-03-29T13:15:21;2.90;;;0.50;;
19869;SDS011;10097;50.862;4.696;2024-03-29T13:17:50;0.50;;;0.20;;
19869;SDS011;10097;50.862;4.696;2024-03-29T13:20:17;0.95;;;0.30;;
19869;SDS011;10097;50.862;4.696;2024-03-29T13:22:43;3.33;;;0.43;;
19869;SDS011;10097;50.862;4.696;2024-03-29T13:25:14;2.75;;;0.50;;
19869;SDS011;10097;50.862;4.696;2024-03-29T13:27:47;1.17;;;0.30;;
19869;SDS011;10097;50.862;4.696;2024-03-29T13:30:20;1.33;;;0.40;;
19869;SDS011;10097;50.862;4.696;2024-03-29T13:32:47;2.30;;;0.40;;
19869;SDS011;10097;50.862;4.696;2024-03-29T13:35:13;4.07;;;0.30;;
19869;SDS011;10097;50.862;4.696;2024-03-29T13:37:40;3.05;;;0.95;;
19869;SDS011;10097;50.862;4.696;2024-03-29T13:40:08;0.57;;;0.30;;
19869;SDS011;10097;50.862;4.696;2024-03-29T13:42:35;1.85;;;0.40;;
19869;SDS011;10097;50.862;4.696;2024-03-29T13:45:02;3.72;;;0.60;;
19869;SDS011;10097;50.862;4.696;2024-03-29T13:47:30;3.75;;;0.77;;
19869;SDS011;10097;50.862;4.696;2024-03-29T13:49:58;5.18;;;0.85;;
19869;SDS011;10097;50.862;4.696;2024-03-29T13:52:24;1.27;;;0.50;;
19869;SDS011;10097;50.862;4.696;2024-03-29T13:54:49;2.17;;;0.70;;
19869;SDS011;10097;50.862;4.696;2024-03-29T13:57:18;1.45;;;0.52;;
19869;SDS011;10097;50.862;4.696;2024-03-29T13:59:44;1.98;;;0.40;;
19869;SDS011;10097;50.862;4.696;2024-03-29T14:02:14;0.85;;;0.30;;
19869;SDS011;10097;50.862;4.696;2024-03-29T14:04:41;2.20;;;0.60;;
19869;SDS011;10097;50.862;4.696;2024-03-29T14:07:08;2.58;;;0.30;;
19869;SDS011;10097;50.862;4.696;2024-03-29T14:09:38;2.40;;;0.50;;
19869;SDS011;10097;50.862;4.696;2024-03-29T14:12:07;2.22;;;0.63;;
19869;SDS011;10097;50.862;4.696;2024-03-29T14:14:33;1.58;;;0.40;;
19869;SDS011;10097;50.862;4.696;2024-03-29T14:17:00;2.58;;;0.50;;
19869;SDS011;10097;50.862;4.696;2024-03-29T14:19:33;4.38;;;0.60;;
19869;SDS011;10097;50.862;4.696;2024-03-29T14:22:00;5.05;;;0.50;;
19869;SDS011;10097;50.862;4.696;2024-03-29T14:24:26;1.30;;;0.30;;
19869;SDS011;10097;50.862;4.696;2024-03-29T14:26:53;2.60;;;0.47;;
19869;SDS011;10097;50.862;4.696;2024-03-29T14:29:19;3.80;;;0.52;;
19869;SDS011;10097;50.862;4.696;2024-03-29T14:31:48;2.50;;;0.52;;
19869;SDS011;10097;50.862;4.696;2024-03-29T14:34:14;2.72;;;0.60;;
19869;SDS011;10097;50.862;4.696;2024-03-29T14:36:41;3.50;;;0.70;;
19869;SDS011;10097;50.862;4.696;2024-03-29T14:39:06;3.00;;;0.40;;
19869;SDS011;10097;50.862;4.696;2024-03-29T14:41:32;3.88;;;0.40;;
19869;SDS011;10097;50.862;4.696;2024-03-29T14:44:01;1.63;;;0.75;;
19869;SDS011;10097;50.862;4.696;2024-03-29T14:46:27;5.60;;;0.73;;
19869;SDS011;10097;50.862;4.696;2024-03-29T14:48:53;4.63;;;0.77;;
19869;SDS011;10097;50.862;4.696;2024-03-29T14:51:19;4.25;;;0.70;;
19869;SDS011;10097;50.862;4.696;2024-03-29T14:53:46;2.35;;;0.57;;
19869;SDS011;10097;50.862;4.696;2024-03-29T14:56:17;3.17;;;0.60;;